Time;durP1;ratioP1;P1;durP2;ratioP2;P2;SDS_P1;SDS_P2;PMS_P1;PMS_P2;Temp;Humidity;BMP_temperature;BMP_pressure;BME280_temperature;BME280_humidity;BME280_pressure;Samples;Min_cycle;Max_cycle;Signal;HPM_P1;HPM_P2
2023/08/20 00:01:56;;;;;;;10.48;6.90;;;;;;;;;;5058913;28;20198;-68
2023/08/20 00:04:26;;;;;;;7.75;6.93;;;;;;;;;;5061601;28;20205;-68
2023/08/20 00:06:53;;;;;;;8.32;7.53;;;;;;;;;;5058190;28;20239;-68
2023/08/20 00:09:21;;;;;;;11.25;7.38;;;;;;;;;;5062242;28;20221;-68
2023/08/20 00:11:48;;;;;;;8.40;7.25;;;;;;;;;;5063327;28;20205;-67
2023/08/20 00:14:17;;;;;;;8.27;7.47;;;;;;;;;;5049432;28;20804;-66
2023/08/20 00:16:44;;;;;;;7.80;7.10;;;;;;;;;;5056551;28;20572;-67
2023/08/20 00:19:12;;;;;;;9.43;8.10;;;;;;;;;;5056574;28;20212;-67
2023/08/20 00:21:43;;;;;;;8.02;7.15;;;;;;;;;;5058137;28;20282;-67
2023/08/20 00:24:11;;;;;;;10.65;7.65;;;;;;;;;;5060515;28;20205;-67
2023/08/20 00:26:38;;;;;;;8.25;7.45;;;;;;;;;;5054415;28;20225;-67
2023/08/20 00:29:05;;;;;;;9.20;8.20;;;;;;;;;;5053911;28;20202;-67
2023/08/20 00:31:33;;;;;;;9.70;8.73;;;;;;;;;;5053229;28;20279;-67
2023/08/20 00:34:00;;;;;;;9.30;8.27;;;;;;;;;;5051577;28;20640;-67
2023/08/20 00:36:34;;;;;;;11.30;8.75;;;;;;;;;;5055625;28;20225;-67
2023/08/20 00:39:01;;;;;;;10.77;8.90;;;;;;;;;;5052241;28;20671;-66
2023/08/20 00:41:28;;;;;;;11.25;8.85;;;;;;;;;;5057098;28;20201;-68
2023/08/20 00:43:55;;;;;;;9.80;8.82;;;;;;;;;;5053758;28;20289;-67
2023/08/20 00:46:23;;;;;;;12.57;8.93;;;;;;;;;;5057579;28;20291;-67
2023/08/20 00:48:50;;;;;;;12.23;10.00;;;;;;;;;;5050861;28;20979;-67
2023/08/20 00:51:18;;;;;;;12.38;10.25;;;;;;;;;;5057220;28;20205;-67
2023/08/20 00:53:45;;;;;;;10.52;9.43;;;;;;;;;;5056354;28;20671;-67
2023/08/20 00:56:12;;;;;;;10.18;9.20;;;;;;;;;;5057044;28;20225;-67
2023/08/20 00:58:40;;;;;;;9.80;8.73;;;;;;;;;;5056458;28;20206;-67
2023/08/20 01:01:07;;;;;;;9.77;8.77;;;;;;;;;;5057558;28;20206;-67
2023/08/20 01:03:34;;;;;;;9.05;8.15;;;;;;;;;;5058021;28;20200;-67
2023/08/20 01:06:37;;;;;;;9.93;8.10;;;;;;;;;;5054815;28;20729;-67
2023/08/20 01:09:07;;;;;;;10.05;9.10;;;;;;;;;;4975973;28;20207;-67
2023/08/20 01:11:37;;;;;;;10.32;9.18;;;;;;;;;;5041551;28;20279;-67
2023/08/20 01:14:15;;;;;;;10.15;9.13;;;;;;;;;;5057443;28;20213;-68
2023/08/20 01:16:43;;;;;;;11.68;9.48;;;;;;;;;;5057708;28;20295;-67
2023/08/20 01:19:13;;;;;;;10.65;9.55;;;;;;;;;;5053615;28;20198;-66
2023/08/20 01:21:45;;;;;;;11.77;10.18;;;;;;;;;;5054135;28;20676;-67
2023/08/20 01:24:37;;;;;;;11.00;9.90;;;;;;;;;;5056520;28;20775;-67
2023/08/20 01:27:23;;;;;;;12.93;9.73;;;;;;;;;;5058116;28;20833;-67
2023/08/20 01:29:51;;;;;;;11.13;9.70;;;;;;;;;;5059195;28;20208;-67
2023/08/20 01:32:19;;;;;;;10.20;9.20;;;;;;;;;;5056479;28;20212;-67
2023/08/20 01:34:48;;;;;;;11.43;9.82;;;;;;;;;;5053944;28;20293;-66
2023/08/20 01:37:16;;;;;;;12.32;9.80;;;;;;;;;;5048035;28;20234;-68
2023/08/20 01:39:43;;;;;;;10.85;9.82;;;;;;;;;;5058340;28;20197;-68
2023/08/20 01:42:11;;;;;;;12.07;9.77;;;;;;;;;;5057332;28;20197;-68
2023/08/20 01:44:38;;;;;;;10.52;9.60;;;;;;;;;;5050469;28;20198;-67
2023/08/20 01:47:06;;;;;;;10.35;9.30;;;;;;;;;;5053192;28;20241;-67
2023/08/20 01:49:33;;;;;;;10.02;9.00;;;;;;;;;;5053811;28;20226;-66
2023/08/20 01:52:00;;;;;;;10.63;9.52;;;;;;;;;;5052274;28;20206;-67
2023/08/20 01:54:28;;;;;;;10.77;9.75;;;;;;;;;;5054207;28;20216;-68
2023/08/20 01:56:56;;;;;;;10.70;9.65;;;;;;;;;;5055060;28;20703;-68
2023/08/20 01:59:23;;;;;;;10.75;9.63;;;;;;;;;;5058107;28;20603;-66
2023/08/20 02:01:51;;;;;;;11.77;9.63;;;;;;;;;;5060556;28;20281;-66
2023/08/20 02:04:18;;;;;;;12.45;9.65;;;;;;;;;;5048831;28;20202;-68
2023/08/20 02:06:45;;;;;;;12.75;9.88;;;;;;;;;;5059635;28;20788;-67
2023/08/20 02:09:13;;;;;;;12.25;10.25;;;;;;;;;;5055218;28;20867;-68
2023/08/20 02:11:40;;;;;;;11.48;10.35;;;;;;;;;;5059012;28;20209;-67
2023/08/20 02:14:07;;;;;;;12.40;11.15;;;;;;;;;;5061768;28;20201;-67
2023/08/20 02:16:34;;;;;;;10.75;9.65;;;;;;;;;;5055367;28;20283;-68
2023/08/20 02:19:02;;;;;;;11.55;9.57;;;;;;;;;;5053107;28;20742;-67
2023/08/20 02:21:30;;;;;;;11.60;10.40;;;;;;;;;;5049789;28;20303;-68
2023/08/20 02:23:57;;;;;;;11.63;10.45;;;;;;;;;;5052051;28;20194;-66
2023/08/20 02:26:24;;;;;;;10.68;9.57;;;;;;;;;;5055678;28;20583;-65
2023/08/20 02:28:52;;;;;;;10.73;9.65;;;;;;;;;;5055642;28;20202;-66
2023/08/20 02:31:19;;;;;;;9.68;8.73;;;;;;;;;;5053686;28;20256;-66
2023/08/20 02:33:47;;;;;;;10.02;8.70;;;;;;;;;;5054214;28;20214;-66
2023/08/20 02:36:14;;;;;;;9.38;8.45;;;;;;;;;;5045940;28;20221;-68
2023/08/20 02:38:41;;;;;;;10.05;8.98;;;;;;;;;;5071369;28;20201;-71
2023/08/20 02:41:09;;;;;;;10.93;9.40;;;;;;;;;;5067961;28;20205;-70
2023/08/20 02:43:36;;;;;;;9.48;8.60;;;;;;;;;;5053200;28;20239;-68
2023/08/20 02:46:04;;;;;;;10.60;9.50;;;;;;;;;;5047424;28;20256;-67
2023/08/20 02:48:31;;;;;;;10.45;9.30;;;;;;;;;;5049921;28;20359;-66
2023/08/20 02:50:59;;;;;;;12.70;11.20;;;;;;;;;;5052498;28;20206;-67
2023/08/20 02:53:26;;;;;;;12.20;11.00;;;;;;;;;;5052445;28;20205;-68
2023/08/20 02:55:53;;;;;;;12.40;11.13;;;;;;;;;;5061996;28;20205;-71
2023/08/20 02:58:21;;;;;;;12.70;11.50;;;;;;;;;;5054363;28;20244;-68
2023/08/20 03:00:48;;;;;;;11.90;10.70;;;;;;;;;;5059894;28;20198;-67
2023/08/20 03:03:15;;;;;;;11.98;10.63;;;;;;;;;;5060625;28;20655;-68
2023/08/20 03:05:43;;;;;;;12.32;10.60;;;;;;;;;;5060125;28;20202;-71
2023/08/20 03:08:10;;;;;;;12.27;10.13;;;;;;;;;;5058706;28;20225;-67
2023/08/20 03:10:37;;;;;;;10.60;9.60;;;;;;;;;;5054221;28;20315;-65
2023/08/20 03:13:05;;;;;;;11.73;10.30;;;;;;;;;;5053185;28;20296;-66
2023/08/20 03:15:32;;;;;;;11.43;10.32;;;;;;;;;;5055239;28;20248;-67
2023/08/20 03:18:00;;;;;;;12.85;11.50;;;;;;;;;;5056208;28;20320;-67
2023/08/20 03:20:28;;;;;;;11.63;10.43;;;;;;;;;;5055253;28;20257;-67
2023/08/20 03:22:55;;;;;;;11.48;10.38;;;;;;;;;;5058027;28;20210;-67
2023/08/20 03:25:23;;;;;;;13.15;10.52;;;;;;;;;;5061729;28;20202;-67
2023/08/20 03:27:50;;;;;;;12.55;11.10;;;;;;;;;;5065603;28;20793;-67
2023/08/20 03:30:18;;;;;;;12.30;11.00;;;;;;;;;;5058276;28;20233;-67
2023/08/20 03:32:45;;;;;;;11.85;10.52;;;;;;;;;;5058700;28;20212;-66
2023/08/20 03:35:13;;;;;;;13.75;10.70;;;;;;;;;;5056943;28;20215;-66
2023/08/20 03:37:40;;;;;;;11.52;10.55;;;;;;;;;;5053601;28;20722;-68
2023/08/20 03:40:07;;;;;;;11.77;10.73;;;;;;;;;;5050972;28;20206;-67
2023/08/20 03:42:35;;;;;;;12.27;10.70;;;;;;;;;;5052899;28;20206;-66
2023/08/20 03:45:03;;;;;;;11.88;10.77;;;;;;;;;;5056991;28;20213;-67
2023/08/20 03:47:30;;;;;;;13.55;12.23;;;;;;;;;;5057584;28;20275;-68
2023/08/20 03:49:57;;;;;;;13.13;11.68;;;;;;;;;;5060990;28;20235;-67
2023/08/20 03:52:24;;;;;;;15.13;13.48;;;;;;;;;;5051801;28;20217;-67
2023/08/20 03:54:52;;;;;;;15.25;13.70;;;;;;;;;;5056493;28;20580;-67
2023/08/20 03:57:19;;;;;;;15.93;13.40;;;;;;;;;;5057426;28;20723;-67
2023/08/20 03:59:47;;;;;;;14.25;12.95;;;;;;;;;;5054765;28;20202;-66
2023/08/20 04:02:14;;;;;;;16.67;14.00;;;;;;;;;;5058548;28;20703;-67
2023/08/20 04:04:42;;;;;;;15.98;13.82;;;;;;;;;;5055588;28;20202;-67
2023/08/20 04:07:09;;;;;;;18.10;15.25;;;;;;;;;;5058899;28;20230;-67
2023/08/20 04:09:38;;;;;;;15.10;13.50;;;;;;;;;;5057744;28;20220;-67
2023/08/20 04:12:05;;;;;;;14.45;12.95;;;;;;;;;;5056084;28;20202;-67
2023/08/20 04:14:33;;;;;;;14.23;12.88;;;;;;;;;;5059459;28;20201;-67
2023/08/20 04:17:00;;;;;;;13.75;12.45;;;;;;;;;;5054222;28;20240;-67
2023/08/20 04:19:27;;;;;;;14.63;12.98;;;;;;;;;;5053075;28;20667;-67
2023/08/20 04:21:55;;;;;;;13.60;12.32;;;;;;;;;;5046011;28;20204;-68
2023/08/20 04:24:22;;;;;;;13.15;11.80;;;;;;;;;;5057217;28;20202;-67
2023/08/20 04:26:49;;;;;;;12.73;11.52;;;;;;;;;;5052562;28;20267;-67
2023/08/20 04:29:16;;;;;;;12.50;11.40;;;;;;;;;;5052212;28;20304;-67
2023/08/20 04:31:45;;;;;;;12.65;10.50;;;;;;;;;;5055849;28;20563;-67
2023/08/20 04:34:12;;;;;;;9.95;9.00;;;;;;;;;;5055221;28;20217;-68
2023/08/20 04:36:39;;;;;;;10.05;8.90;;;;;;;;;;5049191;28;20218;-66
2023/08/20 04:39:07;;;;;;;13.32;10.23;;;;;;;;;;5052928;28;20198;-67
2023/08/20 04:41:34;;;;;;;11.35;10.27;;;;;;;;;;5052400;28;20218;-67
2023/08/20 04:44:01;;;;;;;11.95;10.68;;;;;;;;;;5057046;28;20213;-67
2023/08/20 04:46:28;;;;;;;14.02;12.55;;;;;;;;;;5063451;28;20200;-67
2023/08/20 04:48:56;;;;;;;14.60;13.20;;;;;;;;;;5063705;28;20212;-67
2023/08/20 04:51:23;;;;;;;15.95;13.52;;;;;;;;;;5060068;28;20214;-67
2023/08/20 04:53:50;;;;;;;14.77;13.20;;;;;;;;;;5055110;28;20286;-67
2023/08/20 04:56:18;;;;;;;17.63;15.35;;;;;;;;;;5068042;28;20809;-68
2023/08/20 04:58:46;;;;;;;15.43;13.80;;;;;;;;;;5062325;28;20225;-67
2023/08/20 05:01:13;;;;;;;16.20;14.68;;;;;;;;;;5057479;28;20210;-67
2023/08/20 05:03:40;;;;;;;15.25;13.63;;;;;;;;;;5060384;28;20252;-67
2023/08/20 05:06:08;;;;;;;15.13;13.70;;;;;;;;;;5059263;28;20209;-67
2023/08/20 05:08:35;;;;;;;14.80;13.15;;;;;;;;;;5060378;28;20286;-68
2023/08/20 05:11:03;;;;;;;15.65;12.85;;;;;;;;;;5060521;28;20610;-67
2023/08/20 05:13:30;;;;;;;14.13;12.80;;;;;;;;;;5059840;28;20213;-68
2023/08/20 05:15:57;;;;;;;13.88;12.15;;;;;;;;;;5060039;28;20201;-68
2023/08/20 05:18:26;;;;;;;15.77;12.43;;;;;;;;;;5058021;28;20225;-67
2023/08/20 05:20:53;;;;;;;13.00;11.65;;;;;;;;;;5059321;28;20676;-68
2023/08/20 05:23:21;;;;;;;14.02;12.57;;;;;;;;;;5065577;28;20197;-67
2023/08/20 05:25:48;;;;;;;13.73;12.27;;;;;;;;;;5063635;28;20198;-67
2023/08/20 05:28:15;;;;;;;12.93;11.73;;;;;;;;;;5064221;28;20233;-68
2023/08/20 05:30:42;;;;;;;12.57;11.38;;;;;;;;;;5063942;28;20240;-68
2023/08/20 05:33:10;;;;;;;13.23;11.93;;;;;;;;;;5055061;28;20209;-67
2023/08/20 05:35:38;;;;;;;12.35;11.18;;;;;;;;;;5056368;28;20569;-67
2023/08/20 05:38:06;;;;;;;13.00;11.77;;;;;;;;;;5053942;28;20272;-67
2023/08/20 05:40:33;;;;;;;13.10;11.70;;;;;;;;;;5055778;28;20209;-68
2023/08/20 05:43:00;;;;;;;15.07;13.63;;;;;;;;;;5053047;28;20230;-67
2023/08/20 05:45:27;;;;;;;12.90;11.57;;;;;;;;;;5063455;28;20194;-68
2023/08/20 05:47:55;;;;;;;11.65;10.65;;;;;;;;;;5054671;28;20230;-67
2023/08/20 05:50:22;;;;;;;11.48;10.20;;;;;;;;;;5057171;28;20675;-67
2023/08/20 05:52:49;;;;;;;11.38;10.38;;;;;;;;;;5051665;28;20635;-67
2023/08/20 05:55:17;;;;;;;12.20;11.00;;;;;;;;;;5057671;28;20198;-67
2023/08/20 05:57:46;;;;;;;10.30;9.25;;;;;;;;;;5056802;28;20221;-68
2023/08/20 06:00:15;;;;;;;12.63;11.32;;;;;;;;;;5054235;28;21405;-70
2023/08/20 06:02:42;;;;;;;11.13;10.13;;;;;;;;;;5051419;28;20209;-68
2023/08/20 06:05:11;;;;;;;11.93;10.43;;;;;;;;;;5053594;28;20739;-66
2023/08/20 06:07:38;;;;;;;11.65;10.55;;;;;;;;;;5049227;28;20236;-68
2023/08/20 06:10:06;;;;;;;12.32;11.07;;;;;;;;;;5046324;28;20213;-68
2023/08/20 06:12:34;;;;;;;11.27;10.07;;;;;;;;;;5047431;28;20302;-67
2023/08/20 06:15:01;;;;;;;13.40;12.05;;;;;;;;;;5048724;28;20214;-67
2023/08/20 06:17:29;;;;;;;12.73;11.63;;;;;;;;;;5049614;28;20225;-66
2023/08/20 06:19:56;;;;;;;13.65;12.35;;;;;;;;;;5052424;28;20213;-67
2023/08/20 06:22:24;;;;;;;13.05;11.82;;;;;;;;;;5059466;28;20296;-66
2023/08/20 06:24:52;;;;;;;11.60;10.48;;;;;;;;;;5058722;28;20209;-67
2023/08/20 06:27:19;;;;;;;11.88;10.85;;;;;;;;;;5052185;28;20251;-67
2023/08/20 06:29:46;;;;;;;15.10;12.55;;;;;;;;;;5059376;28;20199;-67
2023/08/20 06:32:14;;;;;;;12.15;11.05;;;;;;;;;;5056816;28;20604;-67
2023/08/20 06:34:41;;;;;;;13.23;11.93;;;;;;;;;;5056767;28;20193;-67
2023/08/20 06:37:09;;;;;;;12.32;11.15;;;;;;;;;;5057533;28;20411;-67
2023/08/20 06:39:36;;;;;;;12.38;11.27;;;;;;;;;;5051606;28;20216;-67
2023/08/20 06:42:03;;;;;;;12.18;10.98;;;;;;;;;;5060779;28;20190;-67
2023/08/20 06:44:30;;;;;;;11.70;10.55;;;;;;;;;;5080499;28;20216;-67
2023/08/20 06:46:58;;;;;;;12.40;11.15;;;;;;;;;;5063873;28;20221;-67
2023/08/20 06:49:25;;;;;;;11.13;10.13;;;;;;;;;;5061204;28;20209;-67
2023/08/20 06:51:52;;;;;;;12.63;11.32;;;;;;;;;;5055219;28;20210;-68
2023/08/20 06:54:23;;;;;;;11.73;10.55;;;;;;;;;;5055809;28;20690;-68
2023/08/20 06:56:50;;;;;;;13.60;10.95;;;;;;;;;;5062086;28;20241;-66
2023/08/20 06:59:18;;;;;;;12.40;10.75;;;;;;;;;;5068752;28;20226;-66
2023/08/20 07:01:46;;;;;;;11.63;10.52;;;;;;;;;;5055531;28;20198;-68
2023/08/20 07:04:13;;;;;;;11.32;10.25;;;;;;;;;;5072389;28;20210;-67
2023/08/20 07:06:41;;;;;;;11.05;10.05;;;;;;;;;;5044621;28;20218;-67
2023/08/20 07:09:09;;;;;;;10.75;9.65;;;;;;;;;;5057073;28;20214;-67
2023/08/20 07:11:37;;;;;;;10.73;9.63;;;;;;;;;;5055098;28;20214;-67
2023/08/20 07:14:05;;;;;;;10.55;9.55;;;;;;;;;;5057998;28;20688;-67
2023/08/20 07:16:32;;;;;;;12.27;9.85;;;;;;;;;;5050939;28;20668;-68
2023/08/20 07:18:59;;;;;;;9.32;8.52;;;;;;;;;;5052832;28;20333;-67
2023/08/20 07:21:27;;;;;;;9.50;8.50;;;;;;;;;;5048766;28;20206;-67
2023/08/20 07:23:54;;;;;;;10.95;8.15;;;;;;;;;;5052646;28;20202;-67
2023/08/20 07:26:22;;;;;;;9.40;7.30;;;;;;;;;;5049827;28;20257;-66
2023/08/20 07:28:56;;;;;;;8.00;7.20;;;;;;;;;;5053232;28;20201;-66
2023/08/20 07:31:27;;;;;;;7.13;6.45;;;;;;;;;;5051412;28;20205;-66
2023/08/20 07:33:56;;;;;;;7.53;6.88;;;;;;;;;;5047314;28;20205;-67
2023/08/20 07:36:24;;;;;;;8.18;7.32;;;;;;;;;;5049288;28;20293;-67
2023/08/20 07:38:52;;;;;;;8.20;7.40;;;;;;;;;;5047738;28;20296;-68
2023/08/20 07:41:20;;;;;;;8.88;7.15;;;;;;;;;;5053516;28;20287;-66
2023/08/20 07:43:48;;;;;;;10.95;7.38;;;;;;;;;;5057896;28;20296;-67
2023/08/20 07:46:16;;;;;;;7.20;6.50;;;;;;;;;;5063398;28;20247;-67
2023/08/20 07:48:43;;;;;;;7.93;7.20;;;;;;;;;;5055487;28;20256;-67
2023/08/20 07:51:11;;;;;;;8.68;7.13;;;;;;;;;;5057697;28;20214;-68
2023/08/20 07:53:38;;;;;;;9.98;6.40;;;;;;;;;;5061032;28;20233;-68
2023/08/20 07:56:06;;;;;;;11.02;6.65;;;;;;;;;;5053446;28;21565;-67
2023/08/20 07:58:33;;;;;;;7.63;6.63;;;;;;;;;;5059477;28;20320;-66
2023/08/20 08:01:01;;;;;;;6.97;6.28;;;;;;;;;;5055994;28;20206;-68
2023/08/20 08:03:28;;;;;;;7.18;5.78;;;;;;;;;;5053421;28;20204;-69
2023/08/20 08:05:56;;;;;;;6.53;5.20;;;;;;;;;;5054680;28;20209;-66
2023/08/20 08:08:24;;;;;;;8.10;6.00;;;;;;;;;;5053067;28;20226;-70
2023/08/20 08:10:51;;;;;;;8.30;6.18;;;;;;;;;;5056057;28;20205;-67
2023/08/20 08:13:20;;;;;;;7.25;6.32;;;;;;;;;;5051075;28;20208;-67
2023/08/20 08:15:47;;;;;;;10.02;6.10;;;;;;;;;;5055820;28;20197;-68
2023/08/20 08:18:15;;;;;;;6.43;5.38;;;;;;;;;;5048296;28;20229;-70
2023/08/20 08:20:43;;;;;;;9.65;6.05;;;;;;;;;;5048757;28;20194;-68
2023/08/20 08:23:11;;;;;;;7.57;5.90;;;;;;;;;;5051218;28;20695;-70
2023/08/20 08:25:41;;;;;;;6.93;5.75;;;;;;;;;;5051317;28;20206;-69
2023/08/20 08:28:09;;;;;;;8.70;6.03;;;;;;;;;;5050915;28;20308;-68
2023/08/20 08:30:36;;;;;;;8.98;5.90;;;;;;;;;;5051772;28;20213;-69
2023/08/20 08:33:03;;;;;;;6.82;6.03;;;;;;;;;;5051793;28;20740;-69
2023/08/20 08:35:31;;;;;;;8.50;5.63;;;;;;;;;;5051412;28;20245;-68
2023/08/20 08:37:58;;;;;;;8.15;6.40;;;;;;;;;;5047157;28;20232;-68
2023/08/20 08:40:29;;;;;;;7.18;5.60;;;;;;;;;;5050790;28;20255;-69
2023/08/20 08:42:56;;;;;;;6.78;5.97;;;;;;;;;;5052479;28;20266;-69
2023/08/20 08:45:24;;;;;;;9.63;6.00;;;;;;;;;;5055053;28;20217;-69
2023/08/20 08:47:53;;;;;;;5.93;5.43;;;;;;;;;;5057425;28;20254;-68
2023/08/20 08:50:21;;;;;;;7.55;5.60;;;;;;;;;;5072844;28;20194;-69
2023/08/20 08:52:52;;;;;;;7.75;6.20;;;;;;;;;;5048334;28;20538;-68
2023/08/20 08:55:20;;;;;;;7.47;6.03;;;;;;;;;;5055038;28;20291;-68
2023/08/20 08:57:48;;;;;;;6.82;6.13;;;;;;;;;;5052316;28;20225;-66
2023/08/20 09:00:16;;;;;;;7.32;5.68;;;;;;;;;;5054788;28;20205;-69
2023/08/20 09:02:43;;;;;;;6.22;5.57;;;;;;;;;;5051699;28;20205;-70
2023/08/20 09:05:14;;;;;;;7.65;5.85;;;;;;;;;;5053854;28;20202;-67
2023/08/20 09:07:43;;;;;;;7.65;5.30;;;;;;;;;;5050694;28;20288;-68
2023/08/20 09:10:11;;;;;;;6.05;5.45;;;;;;;;;;5052584;28;20218;-71
2023/08/20 09:12:39;;;;;;;7.82;5.28;;;;;;;;;;5056326;28;20198;-70
2023/08/20 09:15:13;;;;;;;6.68;5.07;;;;;;;;;;5040392;28;20212;-66
2023/08/20 09:17:42;;;;;;;7.30;5.50;;;;;;;;;;5047640;28;20233;-70
2023/08/20 09:20:09;;;;;;;8.02;5.47;;;;;;;;;;5047359;28;20229;-67
2023/08/20 09:22:39;;;;;;;7.13;5.32;;;;;;;;;;5048408;28;20610;-67
2023/08/20 09:25:08;;;;;;;5.72;5.20;;;;;;;;;;5051525;28;20209;-67
2023/08/20 09:27:42;;;;;;;6.53;5.03;;;;;;;;;;5061345;28;20221;-69
2023/08/20 09:30:20;;;;;;;6.70;5.30;;;;;;;;;;5079763;28;20329;-67
2023/08/20 09:33:03;;;;;;;8.73;5.40;;;;;;;;;;5051633;28;20222;-67
2023/08/20 09:35:32;;;;;;;9.02;5.68;;;;;;;;;;5060153;28;20216;-68
2023/08/20 09:38:01;;;;;;;7.38;5.15;;;;;;;;;;5058229;28;20214;-69
2023/08/20 09:40:28;;;;;;;7.93;5.80;;;;;;;;;;5053855;28;20209;-66
2023/08/20 09:42:56;;;;;;;7.90;5.95;;;;;;;;;;5047706;28;20201;-67
2023/08/20 09:45:28;;;;;;;6.97;6.00;;;;;;;;;;5048145;28;20283;-67
2023/08/20 09:47:56;;;;;;;7.13;5.85;;;;;;;;;;5039601;28;20218;-67
2023/08/20 09:50:24;;;;;;;6.57;5.97;;;;;;;;;;5050043;28;20263;-69
2023/08/20 09:52:56;;;;;;;8.85;6.38;;;;;;;;;;5053306;28;20327;-68
2023/08/20 09:55:26;;;;;;;7.07;6.22;;;;;;;;;;5051047;28;21090;-66
2023/08/20 09:57:54;;;;;;;9.90;6.22;;;;;;;;;;5042791;28;20218;-67
2023/08/20 10:00:21;;;;;;;7.88;7.13;;;;;;;;;;5043171;28;20272;-67
2023/08/20 10:02:50;;;;;;;8.02;6.43;;;;;;;;;;5046253;28;21526;-67
2023/08/20 10:05:17;;;;;;;9.07;7.20;;;;;;;;;;5041614;28;20259;-68
2023/08/20 10:07:46;;;;;;;7.88;6.93;;;;;;;;;;5040488;28;20715;-69
2023/08/20 10:10:17;;;;;;;7.07;6.38;;;;;;;;;;5046438;28;20210;-68
2023/08/20 10:12:45;;;;;;;8.48;6.32;;;;;;;;;;5054489;28;20197;-68
2023/08/20 10:15:13;;;;;;;7.47;6.13;;;;;;;;;;5050078;28;20260;-68
2023/08/20 10:17:45;;;;;;;7.72;5.95;;;;;;;;;;5047993;28;20298;-67
2023/08/20 10:20:15;;;;;;;9.70;6.60;;;;;;;;;;5048748;28;20241;-68
2023/08/20 10:22:44;;;;;;;6.80;6.20;;;;;;;;;;5059959;28;20734;-68
2023/08/20 10:25:30;;;;;;;12.10;6.93;;;;;;;;;;5073605;28;20220;-70
2023/08/20 10:28:33;;;;;;;8.75;6.28;;;;;;;;;;5054168;28;20828;-67
2023/08/20 10:31:06;;;;;;;6.95;6.30;;;;;;;;;;5006141;28;20218;-68
2023/08/20 10:33:37;;;;;;;8.13;7.32;;;;;;;;;;5043993;28;20254;-68
2023/08/20 10:36:14;;;;;;;8.02;6.80;;;;;;;;;;5052218;28;20548;-68
2023/08/20 10:38:41;;;;;;;6.68;5.95;;;;;;;;;;5053236;28;20274;-70
2023/08/20 10:41:09;;;;;;;11.07;8.75;;;;;;;;;;5058860;28;20208;-69
2023/08/20 10:43:40;;;;;;;7.72;6.93;;;;;;;;;;5051211;28;20206;-69
2023/08/20 10:46:18;;;;;;;8.90;6.10;;;;;;;;;;5046349;28;20206;-69
2023/08/20 10:48:48;;;;;;;7.57;6.25;;;;;;;;;;5056177;28;20209;-68
2023/08/20 10:51:17;;;;;;;7.53;5.70;;;;;;;;;;5050470;28;20266;-70
2023/08/20 10:54:03;;;;;;;7.32;5.93;;;;;;;;;;5053269;28;20208;-69
2023/08/20 10:56:48;;;;;;;9.45;5.97;;;;;;;;;;5053111;28;20209;-67
2023/08/20 10:59:27;;;;;;;9.02;6.05;;;;;;;;;;5050895;28;20623;-70
2023/08/20 11:01:56;;;;;;;8.90;6.10;;;;;;;;;;5053077;28;20205;-68
2023/08/20 11:04:28;;;;;;;8.43;6.32;;;;;;;;;;5047309;28;20210;-67
2023/08/20 11:06:59;;;;;;;6.30;5.70;;;;;;;;;;5050959;28;20218;-68
2023/08/20 11:09:28;;;;;;;8.70;5.85;;;;;;;;;;5047703;28;20291;-69
2023/08/20 11:11:55;;;;;;;7.03;5.53;;;;;;;;;;5048602;28;20579;-69
2023/08/20 11:14:23;;;;;;;6.60;6.00;;;;;;;;;;5054316;28;20202;-66
2023/08/20 11:16:51;;;;;;;8.32;5.90;;;;;;;;;;5053522;28;20868;-67
2023/08/20 11:19:22;;;;;;;6.65;6.03;;;;;;;;;;5049561;28;20730;-68
2023/08/20 11:21:50;;;;;;;7.78;6.05;;;;;;;;;;5057207;28;20284;-69
2023/08/20 11:24:19;;;;;;;6.85;5.93;;;;;;;;;;5054760;28;20213;-69
2023/08/20 11:26:47;;;;;;;7.65;6.28;;;;;;;;;;5049502;28;20244;-68
2023/08/20 11:29:20;;;;;;;6.22;5.72;;;;;;;;;;5054259;28;20209;-70
2023/08/20 11:31:49;;;;;;;6.25;5.65;;;;;;;;;;5051225;28;20197;-69
2023/08/20 11:34:19;;;;;;;7.80;5.88;;;;;;;;;;5051563;28;20206;-68
2023/08/20 11:36:50;;;;;;;6.00;5.57;;;;;;;;;;5058481;28;20229;-67
2023/08/20 11:39:17;;;;;;;6.45;5.80;;;;;;;;;;5054855;28;20227;-66
2023/08/20 11:41:45;;;;;;;8.93;6.40;;;;;;;;;;5050037;28;20304;-69
2023/08/20 11:44:20;;;;;;;9.00;6.20;;;;;;;;;;5050305;28;20205;-69
2023/08/20 11:46:48;;;;;;;7.80;5.97;;;;;;;;;;5055360;28;20216;-68
2023/08/20 11:49:16;;;;;;;6.28;5.55;;;;;;;;;;5057992;28;20210;-69
2023/08/20 11:51:45;;;;;;;10.65;6.40;;;;;;;;;;5058318;28;20201;-68
2023/08/20 11:54:16;;;;;;;8.10;6.45;;;;;;;;;;5050338;28;20211;-69
2023/08/20 11:56:48;;;;;;;9.32;6.88;;;;;;;;;;5052304;28;20244;-69
2023/08/20 11:59:16;;;;;;;9.23;6.60;;;;;;;;;;5052584;28;20315;-69
2023/08/20 12:02:05;;;;;;;6.32;5.75;;;;;;;;;;5053873;28;20278;-70
2023/08/20 12:04:33;;;;;;;7.70;5.93;;;;;;;;;;5050867;28;20594;-68
2023/08/20 12:07:09;;;;;;;6.28;5.68;;;;;;;;;;5056578;28;20228;-68
2023/08/20 12:09:37;;;;;;;6.28;5.50;;;;;;;;;;5054472;28;20216;-68
2023/08/20 12:12:06;;;;;;;10.02;5.97;;;;;;;;;;5058519;28;20211;-67
2023/08/20 12:14:34;;;;;;;6.35;5.75;;;;;;;;;;5059383;28;20213;-68
2023/08/20 12:17:03;;;;;;;8.60;6.28;;;;;;;;;;5055770;28;20240;-70
2023/08/20 12:19:30;;;;;;;7.95;5.47;;;;;;;;;;5050415;28;20221;-69
2023/08/20 12:21:58;;;;;;;7.25;5.45;;;;;;;;;;5053830;28;20287;-67
2023/08/20 12:24:25;;;;;;;6.63;5.40;;;;;;;;;;5056728;28;20213;-72
2023/08/20 12:26:53;;;;;;;6.50;5.60;;;;;;;;;;5057448;28;20282;-70
2023/08/20 12:29:20;;;;;;;8.95;6.10;;;;;;;;;;5052830;28;20205;-70
2023/08/20 12:31:48;;;;;;;7.10;5.63;;;;;;;;;;5056153;28;20259;-68
2023/08/20 12:34:15;;;;;;;5.95;5.05;;;;;;;;;;5052244;28;20201;-72
2023/08/20 12:36:43;;;;;;;6.95;5.68;;;;;;;;;;5063307;28;20228;-70
2023/08/20 12:39:10;;;;;;;8.25;5.70;;;;;;;;;;5054563;28;20259;-69
2023/08/20 12:41:38;;;;;;;7.50;5.57;;;;;;;;;;5054521;28;20197;-71
2023/08/20 12:44:05;;;;;;;9.30;7.45;;;;;;;;;;5053311;28;20209;-70
2023/08/20 12:46:34;;;;;;;8.52;5.40;;;;;;;;;;5058238;28;20238;-68
2023/08/20 12:49:01;;;;;;;10.32;5.57;;;;;;;;;;5055949;28;20514;-70
2023/08/20 12:51:29;;;;;;;9.40;5.72;;;;;;;;;;5056892;28;20206;-69
2023/08/20 12:53:56;;;;;;;9.02;5.40;;;;;;;;;;5058317;28;20332;-69
2023/08/20 12:56:23;;;;;;;8.40;5.90;;;;;;;;;;5057837;28;20196;-68
2023/08/20 12:58:51;;;;;;;8.15;5.60;;;;;;;;;;5054301;28;20201;-68
2023/08/20 13:01:19;;;;;;;5.97;5.38;;;;;;;;;;5055631;28;20829;-69
2023/08/20 13:03:46;;;;;;;5.23;4.70;;;;;;;;;;5059825;28;20698;-70
2023/08/20 13:06:14;;;;;;;6.75;5.32;;;;;;;;;;5075776;28;20203;-70
2023/08/20 13:08:42;;;;;;;6.30;5.47;;;;;;;;;;5070225;28;20235;-70
2023/08/20 13:11:11;;;;;;;6.32;5.20;;;;;;;;;;5051851;28;20201;-70
2023/08/20 13:13:39;;;;;;;8.20;5.32;;;;;;;;;;5053077;28;20863;-70
2023/08/20 13:16:07;;;;;;;8.95;5.35;;;;;;;;;;5056402;28;20698;-69
2023/08/20 13:18:34;;;;;;;9.32;5.75;;;;;;;;;;5055394;28;20589;-68
2023/08/20 13:21:03;;;;;;;8.35;5.35;;;;;;;;;;5052547;28;20224;-69
2023/08/20 13:23:31;;;;;;;6.30;5.00;;;;;;;;;;5054592;28;20659;-70
2023/08/20 13:25:58;;;;;;;6.75;5.18;;;;;;;;;;5051138;28;20214;-69
2023/08/20 13:28:26;;;;;;;23.92;15.18;;;;;;;;;;5053652;28;20219;-68
2023/08/20 13:30:53;;;;;;;15.82;10.95;;;;;;;;;;5052669;28;21490;-70
2023/08/20 13:33:20;;;;;;;12.90;10.20;;;;;;;;;;5055691;28;20630;-68
2023/08/20 13:35:48;;;;;;;8.02;4.97;;;;;;;;;;5069576;28;20623;-68
2023/08/20 13:38:15;;;;;;;8.82;5.80;;;;;;;;;;5052281;28;21207;-68
2023/08/20 13:40:43;;;;;;;7.95;5.10;;;;;;;;;;5060391;28;20220;-68
2023/08/20 13:43:11;;;;;;;7.47;4.90;;;;;;;;;;5053834;28;20675;-70
2023/08/20 13:45:38;;;;;;;5.97;4.90;;;;;;;;;;5058526;28;20495;-68
2023/08/20 13:48:05;;;;;;;8.70;5.07;;;;;;;;;;5055024;28;20213;-70
2023/08/20 13:50:33;;;;;;;8.15;4.43;;;;;;;;;;5053407;28;20202;-70
2023/08/20 13:53:00;;;;;;;8.38;4.75;;;;;;;;;;5053632;28;20197;-68
2023/08/20 13:55:29;;;;;;;8.05;4.72;;;;;;;;;;5059126;28;20203;-70
2023/08/20 13:57:56;;;;;;;6.45;4.25;;;;;;;;;;5058470;28;20232;-69
2023/08/20 14:00:23;;;;;;;9.82;5.05;;;;;;;;;;5059409;28;20213;-69
2023/08/20 14:02:50;;;;;;;6.15;4.70;;;;;;;;;;5056694;28;20212;-68
2023/08/20 14:05:19;;;;;;;8.05;5.20;;;;;;;;;;5051740;28;20201;-70
2023/08/20 14:07:46;;;;;;;5.10;4.60;;;;;;;;;;5055235;28;20218;-68
2023/08/20 14:10:14;;;;;;;13.35;9.20;;;;;;;;;;5058142;28;20216;-69
2023/08/20 14:12:41;;;;;;;19.20;15.75;;;;;;;;;;5056558;28;20205;-67
2023/08/20 14:15:10;;;;;;;5.90;4.40;;;;;;;;;;5058990;28;20300;-69
2023/08/20 14:17:38;;;;;;;4.80;4.40;;;;;;;;;;5055395;28;20601;-67
2023/08/20 14:20:10;;;;;;;7.55;4.65;;;;;;;;;;5054551;28;20228;-68
2023/08/20 14:22:38;;;;;;;5.85;4.47;;;;;;;;;;5049902;28;20205;-68
2023/08/20 14:25:06;;;;;;;7.43;4.47;;;;;;;;;;5053198;28;20232;-68
2023/08/20 14:27:33;;;;;;;5.75;4.25;;;;;;;;;;5054426;28;20217;-69
2023/08/20 14:30:01;;;;;;;5.35;4.57;;;;;;;;;;5050138;28;22649;-69
2023/08/20 14:32:29;;;;;;;6.97;4.55;;;;;;;;;;5048069;28;20208;-69
2023/08/20 14:34:57;;;;;;;5.57;4.32;;;;;;;;;;5052940;28;20644;-68
2023/08/20 14:37:24;;;;;;;8.70;4.80;;;;;;;;;;5050302;28;20774;-69
2023/08/20 14:39:53;;;;;;;8.63;5.07;;;;;;;;;;5056297;28;20228;-70
2023/08/20 14:42:21;;;;;;;7.53;5.43;;;;;;;;;;5056504;28;20559;-69